Time;durP1;ratioP1;P1;durP2;ratioP2;P2;SDS_P1;SDS_P2;PMS_P1;PMS_P2;Temp;Humidity;BMP_temperature;BMP_pressure;BME280_temperature;BME280_humidity;BME280_pressure;Samples;Min_cycle;Max_cycle;Signal;HPM_P1;HPM_P2
2024/02/25 00:00:03;;;;;;;20.43;12.03;;;;;;;9.54;100.00;100050.81;1470199;87;21419;-77
2024/02/25 00:02:31;;;;;;;17.77;12.67;;;;;;;9.54;100.00;100056.09;1480373;87;21324;-77
2024/02/25 00:04:58;;;;;;;20.60;13.47;;;;;;;9.53;100.00;100053.95;1477545;87;21301;-77
2024/02/25 00:07:25;;;;;;;18.63;13.10;;;;;;;9.52;100.00;100060.19;1466813;87;21331;-76
2024/02/25 00:09:53;;;;;;;20.27;14.13;;;;;;;9.52;100.00;100056.73;1469767;88;21462;-77
2024/02/25 00:12:23;;;;;;;18.77;12.97;;;;;;;9.52;100.00;100054.91;1467748;87;22395;-77
2024/02/25 00:14:49;;;;;;;16.97;11.73;;;;;;;9.51;100.00;100052.44;1467567;88;21693;-77
2024/02/25 00:17:17;;;;;;;19.87;13.47;;;;;;;9.51;100.00;100048.47;1482135;87;21405;-76
2024/02/25 00:19:44;;;;;;;17.57;12.93;;;;;;;9.49;100.00;100052.10;1473414;87;21413;-76
2024/02/25 00:22:11;;;;;;;17.07;13.33;;;;;;;9.47;100.00;100048.77;1473495;87;21316;-77
2024/02/25 00:24:38;;;;;;;18.37;13.57;;;;;;;9.47;100.00;100061.98;1479698;87;21550;-76
2024/02/25 00:27:06;;;;;;;18.33;12.80;;;;;;;9.46;100.00;100060.30;1476082;87;21383;-79
2024/02/25 00:29:34;;;;;;;17.10;12.57;;;;;;;9.47;100.00;100063.30;1470931;88;21456;-79
2024/02/25 00:32:01;;;;;;;16.67;11.73;;;;;;;9.47;100.00;100064.63;1483898;87;21367;-79
2024/02/25 00:34:28;;;;;;;17.23;12.07;;;;;;;9.47;100.00;100060.66;1468003;88;21532;-79
2024/02/25 00:36:55;;;;;;;16.73;12.77;;;;;;;9.46;100.00;100062.94;1468354;87;21443;-79
2024/02/25 00:39:22;;;;;;;17.37;12.63;;;;;;;9.45;100.00;100049.90;1470689;87;21361;-78
2024/02/25 00:41:52;;;;;;;16.67;12.60;;;;;;;9.45;100.00;100048.08;1481338;87;22314;-78
2024/02/25 00:44:19;;;;;;;18.27;11.73;;;;;;;9.45;100.00;100034.05;1478100;87;21500;-78
2024/02/25 00:46:49;;;;;;;21.97;12.20;;;;;;;9.45;100.00;100042.80;1478382;87;21643;-78
2024/02/25 00:49:16;;;;;;;17.40;12.37;;;;;;;9.45;100.00;100041.48;1474456;87;21426;-78
2024/02/25 00:51:44;;;;;;;19.07;12.03;;;;;;;9.45;100.00;100048.08;1474153;88;21442;-78
2024/02/25 00:54:11;;;;;;;15.73;11.27;;;;;;;9.48;100.00;100049.10;1468173;88;22428;-79
2024/02/25 00:56:38;;;;;;;16.70;12.33;;;;;;;9.51;100.00;100044.02;1476343;87;21482;-78
2024/02/25 00:59:05;;;;;;;17.20;11.33;;;;;;;9.52;100.00;100044.84;1467209;87;21530;-78
2024/02/25 01:01:32;;;;;;;17.43;12.43;;;;;;;9.54;100.00;100051.64;1478386;87;21331;-78
2024/02/25 01:03:59;;;;;;;19.67;11.30;;;;;;;9.56;100.00;100056.78;1466635;88;22343;-78
2024/02/25 01:06:27;;;;;;;20.00;12.63;;;;;;;9.57;100.00;100049.19;1475826;87;21434;-78
2024/02/25 01:08:54;;;;;;;14.83;12.00;;;;;;;9.55;100.00;100047.17;1467326;87;21352;-78
2024/02/25 01:11:21;;;;;;;16.93;11.77;;;;;;;9.52;100.00;100042.20;1474472;87;21279;-78
2024/02/25 01:13:48;;;;;;;15.33;11.87;;;;;;;9.51;100.00;100040.05;1474416;88;22725;-79
2024/02/25 01:16:15;;;;;;;18.17;12.17;;;;;;;9.49;100.00;100041.53;1476409;87;21474;-78
2024/02/25 01:18:42;;;;;;;17.07;11.80;;;;;;;9.48;100.00;100035.07;1467895;88;21405;-78
2024/02/25 01:21:09;;;;;;;14.20;10.70;;;;;;;9.44;100.00;100034.55;1476605;87;22178;-79
2024/02/25 01:23:36;;;;;;;16.87;13.10;;;;;;;9.43;100.00;100036.83;1466497;87;21361;-78
2024/02/25 01:26:04;;;;;;;16.67;12.17;;;;;;;9.42;100.00;100038.31;1483005;87;21316;-78
2024/02/25 01:28:31;;;;;;;16.80;11.73;;;;;;;9.41;100.00;100037.98;1475330;87;21434;-78
2024/02/25 01:30:58;;;;;;;16.20;12.03;;;;;;;9.41;100.00;100037.98;1467722;88;21316;-78
2024/02/25 01:33:25;;;;;;;13.97;11.13;;;;;;;9.41;100.00;100040.13;1481667;87;22338;-78
2024/02/25 01:35:53;;;;;;;14.50;11.03;;;;;;;9.39;100.00;100040.76;1480274;87;22256;-79
2024/02/25 01:38:20;;;;;;;13.63;10.87;;;;;;;9.39;100.00;100039.94;1478505;88;21508;-79
2024/02/25 01:40:47;;;;;;;17.03;12.73;;;;;;;9.39;100.00;100036.80;1477728;87;22321;-79
2024/02/25 01:43:17;;;;;;;17.40;12.27;;;;;;;9.41;100.00;100037.48;1471693;87;21383;-79
2024/02/25 01:45:45;;;;;;;;;;;;;;;9.42;100.00;100037.81;1481775;88;21368;-79
2024/02/25 01:48:16;;;;;;;14.43;10.47;;;;;;;9.42;100.00;100040.46;1468939;87;20853;-79
2024/02/25 01:50:44;;;;;;;18.63;11.53;;;;;;;9.43;100.00;100043.43;1471489;87;21330;-79
2024/02/25 01:53:13;;;;;;;16.47;12.23;;;;;;;9.44;100.00;100032.41;1471234;88;21434;-80
2024/02/25 01:55:45;;;;;;;18.07;12.57;;;;;;;9.43;100.00;100031.55;1470284;87;21353;-80
2024/02/25 01:58:12;;;;;;;16.47;12.07;;;;;;;9.41;100.00;100021.64;1476264;87;21485;-79
2024/02/25 02:00:40;;;;;;;17.20;11.70;;;;;;;9.39;100.00;100016.16;1471037;88;21441;-79
2024/02/25 02:03:08;;;;;;;17.40;12.73;;;;;;;9.34;100.00;100013.96;1480049;87;21375;-77
2024/02/25 02:05:36;;;;;;;18.00;11.67;;;;;;;9.31;100.00;100006.34;1473303;87;21493;-78
2024/02/25 02:08:04;;;;;;;19.33;12.17;;;;;;;9.30;100.00;100010.47;1468896;88;21420;-79
2024/02/25 02:10:31;;;;;;;15.43;12.73;;;;;;;9.29;100.00;100013.57;1474902;87;21324;-78
2024/02/25 02:13:01;;;;;;;15.87;12.67;;;;;;;9.29;100.00;100013.57;1473300;87;21471;-78
2024/02/25 02:15:27;;;;;;;16.20;12.10;;;;;;;9.25;100.00;100010.41;1472073;87;21641;-78
2024/02/25 02:17:55;;;;;;;14.53;12.47;;;;;;;9.21;100.00;100014.34;1477300;87;22159;-78
2024/02/25 02:20:22;;;;;;;16.50;12.97;;;;;;;9.16;100.00;100016.59;1467913;87;21345;-77
2024/02/25 02:22:50;;;;;;;16.80;12.43;;;;;;;9.13;100.00;100015.56;1473564;87;21331;-78
2024/02/25 02:25:18;;;;;;;16.73;12.40;;;;;;;9.11;100.00;100021.97;1480821;87;21435;-77
2024/02/25 02:27:45;;;;;;;15.03;11.50;;;;;;;9.07;100.00;100029.85;1483994;87;22300;-77
2024/02/25 02:30:13;;;;;;;12.53;11.00;;;;;;;9.01;100.00;100026.81;1475440;87;21552;-77
2024/02/25 02:32:40;;;;;;;12.40;10.60;;;;;;;8.94;100.00;100034.97;1472230;87;21344;-77
2024/02/25 02:35:08;;;;;;;13.77;10.90;;;;;;;8.89;100.00;100035.92;1460457;87;21367;-77
2024/02/25 02:37:35;;;;;;;16.33;12.47;;;;;;;8.87;100.00;100034.39;1476502;87;21368;-77
2024/02/25 02:40:04;;;;;;;14.90;12.13;;;;;;;8.86;100.00;100041.48;1483988;88;21390;-77
2024/02/25 02:42:32;;;;;;;18.27;13.17;;;;;;;8.88;100.00;100045.28;1460062;88;21553;-77
2024/02/25 02:45:00;;;;;;;16.60;12.17;;;;;;;8.88;100.00;100039.52;1469529;87;21353;-77
2024/02/25 02:47:27;;;;;;;18.23;12.20;;;;;;;8.88;100.00;100036.87;1472943;87;21397;-76
2024/02/25 02:49:55;;;;;;;18.27;12.83;;;;;;;8.88;100.00;100037.37;1476320;87;21405;-76
2024/02/25 02:52:22;;;;;;;17.70;13.17;;;;;;;8.87;100.00;100041.82;1472238;87;22269;-76
2024/02/25 02:54:49;;;;;;;14.77;11.80;;;;;;;8.86;100.00;100048.09;1467042;87;21360;-76
2024/02/25 02:57:16;;;;;;;17.20;13.20;;;;;;;8.85;100.00;100050.86;1481950;87;21383;-76
2024/02/25 02:59:44;;;;;;;16.57;12.90;;;;;;;8.83;100.00;100040.43;1476537;87;22417;-77
2024/02/25 03:02:11;;;;;;;16.90;13.33;;;;;;;8.83;100.00;100046.20;1475282;88;21346;-76
2024/02/25 03:04:38;;;;;;;21.47;14.73;;;;;;;8.85;100.00;100050.86;1471543;87;21375;-76
2024/02/25 03:07:06;;;;;;;21.30;14.87;;;;;;;8.87;100.00;100051.05;1481196;87;21448;-77
2024/02/25 03:09:33;;;;;;;23.23;14.30;;;;;;;8.88;100.00;100047.43;1477293;88;21501;-77
2024/02/25 03:12:00;;;;;;;17.93;14.17;;;;;;;8.90;100.00;100049.94;1475090;87;21534;-77
2024/02/25 03:14:27;;;;;;;22.70;15.87;;;;;;;8.93;100.00;100056.24;1469772;88;21347;-76
2024/02/25 03:16:54;;;;;;;20.70;15.23;;;;;;;8.95;100.00;100054.30;1467411;88;21352;-77
2024/02/25 03:19:21;;;;;;;22.60;14.77;;;;;;;8.98;100.00;100056.15;1471782;87;22115;-77
2024/02/25 03:21:48;;;;;;;22.40;14.77;;;;;;;9.01;100.00;100055.85;1478199;87;21279;-77
2024/02/25 03:24:16;;;;;;;22.47;15.07;;;;;;;9.04;100.00;100060.02;1477047;87;21354;-78
2024/02/25 03:26:47;;;;;;;21.37;16.53;;;;;;;9.05;100.00;100052.42;1471335;87;21470;-77
2024/02/25 03:29:12;;;;;;;20.63;14.30;;;;;;;9.07;100.00;100058.89;1475717;87;21514;-77
2024/02/25 03:31:39;;;;;;;18.87;13.73;;;;;;;9.07;100.00;100047.02;1470378;87;21353;-77
2024/02/25 03:34:06;;;;;;;19.77;14.03;;;;;;;9.08;100.00;100048.17;1479620;87;21532;-76
2024/02/25 03:36:33;;;;;;;18.10;13.73;;;;;;;9.09;100.00;100045.03;1478058;87;21412;-77
2024/02/25 03:39:00;;;;;;;20.10;12.63;;;;;;;9.08;100.00;100048.66;1463172;88;21368;-77
2024/02/25 03:41:27;;;;;;;19.03;13.37;;;;;;;9.04;100.00;100042.36;1476427;87;21457;-77
2024/02/25 03:43:54;;;;;;;21.13;14.17;;;;;;;9.02;100.00;100046.95;1477111;88;22284;-78
2024/02/25 03:46:21;;;;;;;17.33;13.93;;;;;;;9.01;100.00;100048.43;1478437;87;21331;-77
2024/02/25 03:48:48;;;;;;;17.40;13.47;;;;;;;9.00;100.00;100041.47;1471379;87;21567;-77
2024/02/25 03:51:15;;;;;;;16.80;13.80;;;;;;;8.99;100.00;100045.92;1481037;87;22321;-77
2024/02/25 03:53:45;;;;;;;17.57;14.17;;;;;;;8.99;100.00;100047.24;1471444;87;21397;-77
2024/02/25 03:56:12;;;;;;;19.07;14.97;;;;;;;8.98;100.00;100034.20;1472732;87;21531;-77
2024/02/25 03:58:40;;;;;;;17.60;13.73;;;;;;;8.97;100.00;100037.31;1478352;87;21302;-77
2024/02/25 04:01:07;;;;;;;17.87;13.23;;;;;;;8.95;100.00;100037.97;1473866;87;21538;-77
2024/02/25 04:03:34;;;;;;;19.63;14.27;;;;;;;8.96;100.00;100039.62;1483383;87;21596;-77
2024/02/25 04:06:01;;;;;;;18.80;14.37;;;;;;;8.95;100.00;100047.20;1469286;87;21279;-77
2024/02/25 04:08:28;;;;;;;18.47;14.00;;;;;;;8.95;100.00;100042.42;1465523;87;22374;-77
2024/02/25 04:10:56;;;;;;;25.37;18.73;;;;;;;8.95;100.00;100045.89;1472946;87;21361;-77
2024/02/25 04:13:23;;;;;;;28.43;17.47;;;;;;;8.95;100.00;100048.52;1466688;87;21368;-77
2024/02/25 04:15:50;;;;;;;21.10;16.00;;;;;;;8.93;100.00;100043.87;1475700;87;21331;-77
2024/02/25 04:18:17;;;;;;;24.90;17.93;;;;;;;8.91;100.00;100045.81;1468183;87;22313;-77
2024/02/25 04:20:44;;;;;;;20.13;16.20;;;;;;;8.90;100.00;100054.72;1469619;87;21442;-76
2024/02/25 04:23:11;;;;;;;26.07;17.27;;;;;;;8.88;100.00;100057.98;1479945;87;21368;-76
2024/02/25 04:25:38;;;;;;;22.27;17.17;;;;;;;8.89;100.00;100058.81;1471668;87;22256;-76
2024/02/25 04:28:06;;;;;;;19.90;15.33;;;;;;;8.88;100.00;100060.63;1480270;87;21560;-76
2024/02/25 04:30:33;;;;;;;20.00;15.80;;;;;;;8.87;100.00;100057.66;1472842;88;21309;-75
2024/02/25 04:33:00;;;;;;;19.80;15.40;;;;;;;8.89;100.00;100064.95;1475886;87;21427;-75
2024/02/25 04:35:28;;;;;;;24.20;15.23;;;;;;;8.88;100.00;100056.67;1472034;88;21347;-75
2024/02/25 04:37:55;;;;;;;22.77;16.37;;;;;;;8.86;100.00;100054.69;1467724;88;21553;-75
2024/02/25 04:40:22;;;;;;;22.33;16.33;;;;;;;8.83;100.00;100065.50;1472251;88;23060;-75
2024/02/25 04:42:49;;;;;;;19.90;15.17;;;;;;;8.80;100.00;100065.80;1463436;88;21403;-76
2024/02/25 04:45:16;;;;;;;20.73;15.13;;;;;;;8.79;100.00;100062.83;1469655;87;21390;-75
2024/02/25 04:47:43;;;;;;;22.37;16.37;;;;;;;8.77;100.00;100062.12;1477026;87;21420;-75
2024/02/25 04:50:10;;;;;;;20.77;14.93;;;;;;;8.76;100.00;100054.70;1472932;88;21388;-75
2024/02/25 04:52:38;;;;;;;21.07;15.50;;;;;;;8.75;100.00;100054.37;1480938;87;21500;-76
2024/02/25 04:55:05;;;;;;;21.00;15.33;;;;;;;8.75;100.00;100051.73;1476384;87;21434;-76
2024/02/25 04:57:32;;;;;;;21.73;15.63;;;;;;;8.74;100.00;100051.86;1466709;87;22455;-75
2024/02/25 05:00:00;;;;;;;19.77;14.60;;;;;;;8.71;100.00;100052.16;1461117;88;21824;-76
2024/02/25 05:02:27;;;;;;;20.37;14.73;;;;;;;8.71;100.00;100050.34;1473513;87;21338;-76
2024/02/25 05:04:54;;;;;;;21.63;14.37;;;;;;;8.70;100.00;100047.87;1480219;87;21962;-75
2024/02/25 05:07:21;;;;;;;22.27;15.40;;;;;;;8.67;100.00;100052.11;1485045;88;21361;-76
2024/02/25 05:09:48;;;;;;;21.10;14.43;;;;;;;8.65;100.00;100052.24;1474057;87;21519;-76
2024/02/25 05:12:16;;;;;;;20.27;15.27;;;;;;;8.65;100.00;100056.70;1467522;87;21387;-78
2024/02/25 05:14:44;;;;;;;24.93;14.40;;;;;;;8.64;100.00;100045.81;1471765;87;21353;-78
2024/02/25 05:17:11;;;;;;;20.87;15.13;;;;;;;8.61;100.00;100044.28;1473595;87;21434;-79
2024/02/25 05:19:38;;;;;;;21.13;15.47;;;;;;;8.59;100.00;100044.41;1468792;87;21434;-79
2024/02/25 05:22:05;;;;;;;24.67;15.93;;;;;;;8.56;100.00;100041.24;1476351;87;22270;-79
2024/02/25 05:24:32;;;;;;;20.43;15.47;;;;;;;8.54;100.00;100038.73;1481904;88;21435;-79
2024/02/25 05:27:00;;;;;;;19.20;14.70;;;;;;;8.52;100.00;100041.20;1476466;87;22351;-78
2024/02/25 05:29:27;;;;;;;21.87;15.47;;;;;;;8.50;100.00;100042.65;1470615;87;21449;-79
2024/02/25 05:31:54;;;;;;;22.37;14.57;;;;;;;8.50;100.00;100043.97;1476583;87;21412;-79
2024/02/25 05:34:21;;;;;;;22.70;17.90;;;;;;;8.50;100.00;100051.05;1467378;87;21464;-80
2024/02/25 05:36:48;;;;;;;31.17;19.60;;;;;;;8.52;100.00;100049.94;1475976;88;22394;-78
2024/02/25 05:39:16;;;;;;;27.27;18.23;;;;;;;8.51;100.00;100041.66;1472402;87;22218;-79
2024/02/25 05:41:43;;;;;;;27.50;20.60;;;;;;;8.52;100.00;100055.22;1475775;87;21478;-79
2024/02/25 05:44:11;;;;;;;25.63;19.57;;;;;;;8.52;100.00;100049.94;1480136;87;21346;-78
2024/02/25 05:46:38;;;;;;;29.87;20.33;;;;;;;8.55;100.00;100050.14;1466570;87;21434;-78
2024/02/25 05:49:05;;;;;;;27.67;20.13;;;;;;;8.56;100.00;100052.62;1471005;87;21412;-78
2024/02/25 05:51:32;;;;;;;26.17;19.53;;;;;;;8.58;100.00;100052.00;1472840;87;22299;-77
2024/02/25 05:54:00;;;;;;;24.37;18.20;;;;;;;8.61;100.00;100043.46;1475862;87;21500;-78
2024/02/25 05:56:27;;;;;;;23.83;17.50;;;;;;;8.62;100.00;100043.80;1461109;87;21471;-78
2024/02/25 05:58:54;;;;;;;25.50;17.47;;;;;;;8.64;100.00;100053.72;1466648;87;22291;-78
2024/02/25 06:01:21;;;;;;;21.83;16.93;;;;;;;8.65;100.00;100056.70;1475580;87;21339;-78
2024/02/25 06:03:48;;;;;;;27.47;17.73;;;;;;;8.67;100.00;100062.66;1470474;87;22543;-79
2024/02/25 06:06:15;;;;;;;28.23;17.80;;;;;;;8.69;100.00;100066.83;1479179;87;21390;-79
2024/02/25 06:08:43;;;;;;;21.77;15.83;;;;;;;8.71;100.00;100071.45;1474911;88;22461;-81
2024/02/25 06:11:10;;;;;;;19.83;15.70;;;;;;;8.72;100.00;100069.17;1473523;88;21345;-79
2024/02/25 06:13:37;;;;;;;20.70;16.30;;;;;;;8.74;100.00;100082.20;1469381;87;21279;-78
2024/02/25 06:16:04;;;;;;;22.97;15.67;;;;;;;8.75;100.00;100079.94;1471833;87;21381;-79
2024/02/25 06:18:32;;;;;;;20.10;16.43;;;;;;;8.74;100.00;100079.56;1479065;87;21353;-79
2024/02/25 06:20:59;;;;;;;20.53;15.43;;;;;;;8.74;100.00;100082.20;1471082;88;21354;-78
2024/02/25 06:23:26;;;;;;;19.47;16.70;;;;;;;8.75;100.00;100080.76;1471596;87;21491;-79
2024/02/25 06:25:57;;;;;;;26.50;20.10;;;;;;;8.75;100.00;100082.08;1469506;87;21530;-79
2024/02/25 06:28:25;;;;;;;22.93;17.93;;;;;;;8.75;100.00;100083.89;1479106;87;21538;-79
2024/02/25 06:30:52;;;;;;;26.23;19.07;;;;;;;8.76;100.00;100090.33;1480149;88;21345;-79
2024/02/25 06:33:19;;;;;;;25.00;18.57;;;;;;;8.75;100.00;100095.77;1474493;87;21368;-79
2024/02/25 06:35:50;;;;;;;31.33;19.33;;;;;;;8.76;100.00;100092.96;1475732;88;21420;-79
2024/02/25 06:38:17;;;;;;;26.90;20.50;;;;;;;8.77;100.00;100093.79;1474186;88;21354;-79
2024/02/25 06:40:44;;;;;;;29.10;20.70;;;;;;;8.80;100.00;100104.05;1476618;87;21620;-79
2024/02/25 06:43:12;;;;;;;27.73;18.60;;;;;;;8.82;100.00;100106.07;1466127;87;21589;-79
2024/02/25 06:45:40;;;;;;;22.07;17.23;;;;;;;8.85;100.00;100107.59;1469373;88;22367;-78
2024/02/25 06:48:07;;;;;;;23.27;17.30;;;;;;;8.87;100.00;100113.56;1485238;87;21361;-78
2024/02/25 06:50:35;;;;;;;27.67;18.13;;;;;;;8.89;100.00;100119.05;1482526;87;21427;-78
2024/02/25 06:53:03;;;;;;;23.90;16.87;;;;;;;8.92;100.00;100121.40;1468673;87;21346;-78
2024/02/25 06:55:30;;;;;;;25.50;18.63;;;;;;;8.94;100.00;100124.70;1461881;88;21704;-78
2024/02/25 06:57:57;;;;;;;28.37;20.70;;;;;;;8.94;100.00;100127.84;1472885;87;21821;-79
2024/02/25 07:00:25;;;;;;;32.20;22.07;;;;;;;8.94;100.00;100129.98;1469755;88;21323;-79
2024/02/25 07:02:54;;;;;;;23.30;19.20;;;;;;;8.97;100.00;100123.59;1474332;87;21368;-79
2024/02/25 07:05:21;;;;;;;29.13;21.83;;;;;;;8.98;100.00;100124.78;1473843;87;21383;-79
2024/02/25 07:07:52;;;;;;;25.33;19.43;;;;;;;9.00;100.00;100125.44;1468712;88;21613;-79
2024/02/25 07:10:20;;;;;;;28.10;19.43;;;;;;;9.00;100.00;100121.48;1478650;87;22498;-79
2024/02/25 07:12:47;;;;;;;24.57;18.87;;;;;;;9.00;100.00;100118.84;1471514;87;21303;-79
2024/02/25 07:15:14;;;;;;;26.60;19.53;;;;;;;9.03;100.00;100111.98;1473969;87;21427;-79
2024/02/25 07:17:41;;;;;;;25.53;19.50;;;;;;;9.07;100.00;100115.65;1477198;88;21338;-79
2024/02/25 07:20:09;;;;;;;24.63;18.90;;;;;;;9.09;100.00;100113.67;1475865;87;22290;-79
2024/02/25 07:22:36;;;;;;;22.43;17.97;;;;;;;9.10;100.00;100108.75;1475987;87;21538;-78
2024/02/25 07:25:04;;;;;;;25.93;18.83;;;;;;;9.13;100.00;100112.42;1482644;87;21547;-79
2024/02/25 07:27:31;;;;;;;29.17;19.70;;;;;;;9.18;100.00;100110.18;1481531;87;21519;-79
2024/02/25 07:29:58;;;;;;;25.33;18.30;;;;;;;9.20;100.00;100111.67;1470026;87;22388;-79
2024/02/25 07:32:25;;;;;;;27.70;21.30;;;;;;;9.25;100.00;100116.53;1482630;87;21360;-79
2024/02/25 07:34:52;;;;;;;30.80;21.60;;;;;;;9.29;100.00;100111.77;1477854;88;21264;-79
2024/02/25 07:37:19;;;;;;;27.50;21.93;;;;;;;9.31;100.00;100109.33;1473280;88;21390;-79
2024/02/25 07:39:46;;;;;;;32.83;23.80;;;;;;;9.35;100.00;100114.68;1470979;87;21338;-78
2024/02/25 07:42:13;;;;;;;30.60;22.13;;;;;;;9.38;100.00;100105.14;1483897;87;21449;-78
2024/02/25 07:44:40;;;;;;;29.40;20.63;;;;;;;9.43;100.00;100104.19;1470877;87;21412;-79
2024/02/25 07:47:07;;;;;;;28.43;19.93;;;;;;;9.49;100.00;100107.58;1473635;87;21405;-78
2024/02/25 07:49:35;;;;;;;23.17;19.10;;;;;;;9.57;100.00;100100.70;1472986;88;21419;-79
2024/02/25 07:52:02;;;;;;;24.67;19.33;;;;;;;9.63;100.00;100098.29;1476127;87;22365;-79
2024/02/25 07:54:29;;;;;;;27.30;19.90;;;;;;;9.71;100.00;100103.66;1471333;88;21427;-79
2024/02/25 07:56:56;;;;;;;23.27;18.43;;;;;;;9.80;100.00;100109.03;1466253;87;21463;-78
2024/02/25 07:59:23;;;;;;;32.80;19.13;;;;;;;9.87;100.00;100115.40;1474478;87;21360;-79
2024/02/25 08:01:50;;;;;;;28.77;21.67;;;;;;;9.91;100.00;100107.00;1469847;87;21323;-79
2024/02/25 08:04:17;;;;;;;29.57;21.83;;;;;;;9.98;100.00;100111.67;1469576;87;21456;-79
2024/02/25 08:06:44;;;;;;;35.37;23.60;;;;;;;10.01;100.00;100111.37;1474099;87;21449;-78
2024/02/25 08:09:11;;;;;;;29.27;19.80;;;;;;;10.05;100.00;100111.42;1470653;87;22372;-78
2024/02/25 08:11:39;;;;;;;26.53;19.67;;;;;;;10.05;100.00;100112.75;1468810;88;21549;-78
2024/02/25 08:14:06;;;;;;;22.90;18.20;;;;;;;10.07;100.00;100112.94;1477090;87;22247;-78
2024/02/25 08:16:35;;;;;;;28.40;19.83;;;;;;;10.15;100.00;100113.48;1470758;87;21635;-78
2024/02/25 08:19:01;;;;;;;21.57;16.23;;;;;;;10.24;100.00;100112.59;1396023;87;21376;-79
2024/02/25 08:21:29;;;;;;;23.80;16.40;;;;;;;10.33;100.00;100111.69;1398679;87;21199;-76
2024/02/25 08:23:56;;;;;;;22.03;15.00;;;;;;;10.43;100.00;100112.09;1404131;87;22241;-78
2024/02/25 08:26:23;;;;;;;27.43;13.57;;;;;;;10.49;100.00;100104.84;1392216;89;21227;-78
2024/02/25 08:28:50;;;;;;;19.97;13.83;;;;;;;10.57;100.00;100100.44;1398921;87;21397;-79
2024/02/25 08:31:17;;;;;;;18.60;12.80;;;;;;;10.70;100.00;100097.36;1398911;87;21257;-79
2024/02/25 08:33:44;;;;;;;16.37;12.23;;;;;;;10.80;100.00;100091.98;1399022;87;22135;-77
2024/02/25 08:36:11;;;;;;;17.43;12.83;;;;;;;10.92;100.00;100095.19;1398849;87;21289;-79
2024/02/25 08:38:41;;;;;;;16.73;12.97;;;;;;;11.02;100.00;100091.94;1404029;87;21346;-79
2024/02/25 08:41:08;;;;;;;15.17;11.53;;;;;;;11.14;100.00;100081.39;1398772;88;21295;-79
2024/02/25 08:43:35;;;;;;;13.93;10.73;;;;;;;11.21;100.00;100078.42;1398792;87;21334;-79
2024/02/25 08:46:03;;;;;;;16.53;12.10;;;;;;;11.29;100.00;100074.98;1398276;88;21265;-79
2024/02/25 08:48:30;;;;;;;14.90;11.43;;;;;;;11.36;100.00;100076.48;1403989;87;21443;-78
2024/02/25 08:50:57;;;;;;;18.97;12.50;;;;;;;11.42;100.00;100074.51;1398678;87;21176;-78
2024/02/25 08:53:24;;;;;;;18.30;13.97;;;;;;;11.47;100.00;100073.53;1391727;89;21191;-79
2024/02/25 08:55:51;;;;;;;19.13;14.90;;;;;;;11.47;100.00;100077.00;1404949;87;21235;-77
2024/02/25 08:58:18;;;;;;;21.77;14.43;;;;;;;11.52;100.00;100077.86;1404975;87;22107;-78
2024/02/25 09:00:45;;;;;;;20.20;13.60;;;;;;;11.56;100.00;100079.68;1398693;87;21334;-79
2024/02/25 09:03:13;;;;;;;15.93;13.00;;;;;;;11.56;100.00;100079.18;1546271;88;21361;-77
2024/02/25 09:05:41;;;;;;;18.93;14.80;;;;;;;11.57;100.00;100076.06;1398125;87;22021;-78
2024/02/25 09:08:08;;;;;;;20.50;14.57;;;;;;;11.57;100.00;100075.55;1399004;87;21458;-79
2024/02/25 09:10:36;;;;;;;17.17;13.97;;;;;;;11.58;100.00;100075.05;1396610;87;21309;-78
2024/02/25 09:13:03;;;;;;;21.20;14.73;;;;;;;11.56;100.00;100079.68;1398353;87;21372;-80
2024/02/25 09:15:32;;;;;;;18.70;14.10;;;;;;;11.57;100.00;100076.88;1398133;87;21214;-78
2024/02/25 09:18:03;;;;;;;23.87;14.30;;;;;;;11.58;100.00;100082.50;1557850;88;21331;-78
2024/02/25 09:20:33;;;;;;;18.47;13.40;;;;;;;11.62;100.00;100077.20;1402431;87;22264;-78
2024/02/25 09:23:05;;;;;;;19.57;14.30;;;;;;;11.67;100.00;100073.57;1559111;88;22101;-78
2024/02/25 09:25:36;;;;;;;21.77;14.77;;;;;;;11.71;100.00;100076.25;1396741;87;21243;-79
2024/02/25 09:28:04;;;;;;;18.70;14.70;;;;;;;11.76;100.00;100078.39;1394971;87;21265;-78
2024/02/25 09:30:32;;;;;;;20.93;14.17;;;;;;;11.79;100.00;100073.26;1403043;87;21390;-78
2024/02/25 09:32:59;;;;;;;17.83;13.97;;;;;;;11.82;100.00;100074.25;1559089;88;21243;-78
2024/02/25 09:35:26;;;;;;;19.43;14.53;;;;;;;11.83;100.00;100074.10;1398868;87;21272;-77
2024/02/25 09:37:53;;;;;;;25.03;14.67;;;;;;;11.86;100.00;100072.98;1398845;87;22100;-79
2024/02/25 09:40:21;;;;;;;20.60;14.40;;;;;;;11.91;100.00;100081.25;1404636;87;21353;-78
2024/02/25 09:42:48;;;;;;;16.00;11.87;;;;;;;11.96;100.00;100085.06;1398995;87;21391;-77
2024/02/25 09:45:23;;;;;;;13.60;11.00;;;;;;;12.04;100.00;100095.36;1398949;87;22020;-77
2024/02/25 09:47:52;;;;;;;17.60;11.70;;;;;;;12.05;100.00;100089.88;1559199;87;21391;-78
2024/02/25 09:50:21;;;;;;;13.77;10.63;;;;;;;12.08;100.00;100094.84;1403058;87;22277;-78
2024/02/25 09:56:52;;;;;;;15.10;10.90;;;;;;;12.06;100.00;100096.03;1433772;88;21324;-77
2024/02/25 09:59:18;;;;;;;16.30;10.00;;;;;;;12.03;100.00;100097.19;1416881;87;21353;-78
2024/02/25 10:01:47;;;;;;;20.97;14.60;;;;;;;12.02;100.00;100086.23;1396609;87;21398;-78
2024/02/25 10:04:15;;;;;;;21.33;13.63;;;;;;;12.06;100.00;100082.27;1396934;87;21302;-78
2024/02/25 10:06:45;;;;;;;18.07;11.87;;;;;;;12.18;100.00;100080.94;1397745;87;21236;-78
2024/02/25 10:09:12;;;;;;;17.17;11.63;;;;;;;12.32;100.00;100079.95;1401307;87;22411;-77
2024/02/25 10:11:42;;;;;;;14.47;10.47;;;;;;;12.42;100.00;100070.78;1559187;88;21399;-77
2024/02/25 10:14:10;;;;;;;14.50;10.53;;;;;;;12.52;100.00;100060.52;1389370;89;21257;-77
2024/02/25 10:16:37;;;;;;;18.47;10.53;;;;;;;12.62;100.00;100047.36;1397847;87;21295;-77
2024/02/25 10:19:08;;;;;;;14.03;9.57;;;;;;;12.79;100.00;100045.98;1395088;88;22219;-77
2024/02/25 10:21:35;;;;;;;15.50;9.50;;;;;;;12.99;100.00;100045.91;1390039;89;21317;-77
2024/02/25 10:24:02;;;;;;;14.10;9.50;;;;;;;13.09;100.00;100043.89;1398972;88;22064;-78
2024/02/25 10:26:30;;;;;;;14.53;10.47;;;;;;;13.26;100.00;100038.02;1398417;87;22101;-77
2024/02/25 10:29:05;;;;;;;18.30;12.30;;;;;;;13.51;100.00;100033.37;1404291;87;21346;-78
2024/02/25 10:31:34;;;;;;;11.43;9.10;;;;;;;13.84;100.00;100038.47;1395504;87;21435;-78
2024/02/25 10:34:01;;;;;;;10.67;8.90;;;;;;;13.99;100.00;100042.00;1397692;88;21236;-78
2024/02/25 10:36:29;;;;;;;12.77;8.77;;;;;;;13.98;100.00;100032.84;1392051;89;21311;-78
2024/02/25 10:38:57;;;;;;;10.13;8.33;;;;;;;14.03;100.00;100038.47;1402708;87;21265;-77
2024/02/25 10:41:25;;;;;;;12.33;9.23;;;;;;;14.13;100.00;100040.90;1398600;87;21376;-78
2024/02/25 10:44:02;;;;;;;12.20;9.50;;;;;;;14.18;100.00;100029.19;1398040;88;21310;-77
2024/02/25 10:46:38;;;;;;;16.40;9.87;;;;;;;14.28;100.00;100032.43;1559152;87;21243;-77
2024/02/25 10:49:07;;;;;;;10.93;8.27;;;;;;;14.50;100.00;100027.20;1401256;88;21287;-78
2024/02/25 10:51:35;;;;;;;11.80;8.53;;;;;;;14.79;100.00;100018.45;1396721;87;21450;-78
2024/02/25 10:54:04;;;;;;;11.83;7.37;;;;;;;15.04;100.00;100012.28;1397980;88;21229;-77
2024/02/25 10:56:31;;;;;;;10.87;7.07;;;;;;;15.28;100.00;100007.97;1396459;89;21390;-78
2024/02/25 10:59:00;;;;;;;12.00;8.13;;;;;;;15.47;100.00;100007.02;1397152;88;21272;-78
2024/02/25 11:01:29;;;;;;;11.13;7.47;;;;;;;15.60;100.00;100007.16;1559158;88;21176;-78
2024/02/25 11:03:57;;;;;;;8.40;6.50;;;;;;;15.75;100.00;100001.79;1467369;88;21522;-77
2024/02/25 11:06:42;;;;;;;10.07;7.47;;;;;;;15.87;100.00;99999.42;1471856;87;21383;-80
2024/02/25 11:09:13;;;;;;;8.13;6.57;;;;;;;15.97;100.00;99997.27;1473553;88;21869;-79
2024/02/25 11:11:42;;;;;;;6.42;5.08;;;;;;;16.01;100.00;99993.17;1420076;87;21532;-79
2024/02/25 11:14:19;;;;;;;7.63;5.97;;;;;;;16.09;100.00;99995.71;1395805;87;21448;-81